Time;durP1;ratioP1;P1;durP2;ratioP2;P2;SDS_P1;SDS_P2;PMS_P1;PMS_P2;Temp;Humidity;BMP_temperature;BMP_pressure;BME280_temperature;BME280_humidity;BME280_pressure;Samples;Min_cycle;Max_cycle;Signal;HPM_P1;HPM_P2
2022/06/29 00:01:54;;;;;;;7.22;1.90;;;15.60;99.90;;;;;;6220686;23;20066;-80
2022/06/29 00:04:20;;;;;;;6.60;1.90;;;15.50;99.90;;;;;;6247601;23;20016;-80
2022/06/29 00:06:46;;;;;;;6.68;1.83;;;15.50;99.90;;;;;;6220845;23;20035;-80
2022/06/29 00:09:11;;;;;;;4.10;1.58;;;15.50;99.90;;;;;;6247758;23;20016;-81
2022/06/29 00:11:37;;;;;;;6.38;1.88;;;15.50;99.90;;;;;;6247770;23;20095;-80
2022/06/29 00:14:03;;;;;;;6.85;2.22;;;15.50;99.90;;;;;;6247932;23;20035;-81
2022/06/29 00:16:29;;;;;;;6.15;1.70;;;15.50;99.90;;;;;;6247357;23;20016;-81
2022/06/29 00:18:55;;;;;;;6.05;2.00;;;15.50;99.90;;;;;;6247446;23;20059;-80
2022/06/29 00:21:20;;;;;;;5.70;1.70;;;15.40;99.90;;;;;;6247532;23;20316;-81
2022/06/29 00:23:46;;;;;;;5.20;2.00;;;15.40;99.90;;;;;;6220511;23;20027;-80
2022/06/29 00:26:12;;;;;;;3.80;1.85;;;15.40;99.90;;;;;;6247946;23;20066;-80
2022/06/29 00:28:37;;;;;;;5.03;2.00;;;15.30;99.90;;;;;;6247784;23;20323;-81
2022/06/29 00:31:03;;;;;;;2.38;1.52;;;15.40;99.90;;;;;;6247243;23;20020;-81
2022/06/29 00:33:29;;;;;;;4.97;2.05;;;15.30;99.90;;;;;;6247587;23;20085;-80
2022/06/29 00:35:55;;;;;;;5.07;2.17;;;15.30;99.90;;;;;;6247342;23;20094;-82
2022/06/29 00:38:20;;;;;;;4.97;1.80;;;15.30;99.90;;;;;;6221054;23;20031;-81
2022/06/29 00:40:46;;;;;;;5.47;1.80;;;15.20;99.90;;;;;;6247558;23;20023;-81
2022/06/29 00:43:12;;;;;;;4.90;2.17;;;15.20;99.90;;;;;;6220638;23;20462;-81
2022/06/29 00:45:37;;;;;;;4.13;1.90;;;15.20;99.90;;;;;;6247416;23;20101;-81
2022/06/29 00:48:04;;;;;;;4.13;2.00;;;15.10;99.90;;;;;;6247075;23;20043;-81
2022/06/29 00:50:32;;;;;;;3.05;1.70;;;15.10;99.90;;;;;;6247364;23;20043;-80
2022/06/29 00:53:03;;;;;;;5.43;2.15;;;15.10;99.90;;;;;;6247351;23;20020;-80
2022/06/29 00:55:31;;;;;;;6.28;1.90;;;15.00;99.90;;;;;;6220600;23;20008;-80
2022/06/29 00:58:00;;;;;;;1.85;1.63;;;15.10;99.90;;;;;;6247338;23;20095;-80
2022/06/29 01:00:26;;;;;;;8.02;2.25;;;14.90;99.90;;;;;;6247255;23;20012;-80
2022/06/29 01:02:52;;;;;;;3.53;2.00;;;14.90;99.90;;;;;;6219910;23;20023;-81
2022/06/29 01:05:17;;;;;;;3.85;1.80;;;14.90;99.90;;;;;;6219946;23;20020;-82
2022/06/29 01:07:44;;;;;;;4.07;1.95;;;14.80;99.90;;;;;;6247350;23;20016;-80
2022/06/29 01:10:10;;;;;;;6.78;1.70;;;14.80;99.90;;;;;;6195319;23;20017;-81
2022/06/29 01:12:35;;;;;;;5.47;1.90;;;14.90;99.90;;;;;;6220448;23;20039;-81
2022/06/29 01:15:01;;;;;;;4.47;2.05;;;14.80;99.90;;;;;;6220328;23;20023;-81
2022/06/29 01:17:27;;;;;;;4.65;2.10;;;14.80;99.90;;;;;;6247107;23;20103;-81
2022/06/29 01:19:53;;;;;;;2.53;1.70;;;14.70;99.90;;;;;;6220270;23;20082;-81
2022/06/29 01:22:20;;;;;;;5.88;2.00;;;14.70;99.90;;;;;;6247039;23;20047;-80
2022/06/29 01:24:47;;;;;;;4.38;2.40;;;14.70;99.90;;;;;;6220384;23;20059;-81
2022/06/29 01:27:14;;;;;;;9.82;1.90;;;14.80;99.90;;;;;;6246698;23;20447;-81
2022/06/29 01:29:40;;;;;;;3.42;2.10;;;14.80;99.90;;;;;;6246904;23;20016;-80
2022/06/29 01:32:07;;;;;;;5.40;2.00;;;14.70;99.90;;;;;;6246953;23;20023;-81
2022/06/29 01:34:34;;;;;;;4.85;1.90;;;14.70;99.90;;;;;;6220107;23;20012;-83
2022/06/29 01:37:01;;;;;;;7.45;2.15;;;14.70;99.90;;;;;;6246800;23;20020;-80
2022/06/29 01:39:27;;;;;;;5.03;1.88;;;14.70;99.90;;;;;;6220102;23;20020;-81
2022/06/29 01:41:53;;;;;;;5.55;2.17;;;14.70;99.90;;;;;;6247037;23;20027;-80
2022/06/29 01:44:19;;;;;;;7.68;2.00;;;14.60;99.90;;;;;;6246738;23;20016;-80
2022/06/29 01:46:45;;;;;;;6.35;2.33;;;14.60;99.90;;;;;;6247014;23;20317;-80
2022/06/29 01:49:11;;;;;;;5.38;2.00;;;14.60;99.90;;;;;;6219921;23;20020;-82
2022/06/29 01:51:36;;;;;;;3.13;1.95;;;14.70;99.90;;;;;;6219750;23;20038;-80
2022/06/29 01:54:02;;;;;;;7.00;2.38;;;14.60;99.90;;;;;;6246645;23;20087;-80
2022/06/29 01:56:28;;;;;;;5.72;1.98;;;14.60;99.90;;;;;;6246481;23;20012;-81
2022/06/29 01:58:54;;;;;;;4.05;2.00;;;14.60;99.90;;;;;;6246564;23;20095;-81
2022/06/29 02:01:19;;;;;;;4.90;2.22;;;14.60;99.90;;;;;;6219895;23;20077;-80
2022/06/29 02:03:45;;;;;;;5.85;2.00;;;14.60;99.90;;;;;;6246556;23;20017;-81
2022/06/29 02:06:12;;;;;;;9.02;2.20;;;14.60;99.90;;;;;;6219639;23;20099;-81
2022/06/29 02:08:37;;;;;;;6.43;2.30;;;14.60;99.90;;;;;;6246914;23;20100;-81
2022/06/29 02:11:03;;;;;;;5.45;2.10;;;14.60;99.90;;;;;;6246916;23;20461;-80
2022/06/29 02:13:29;;;;;;;4.32;2.08;;;14.60;99.90;;;;;;6246515;23;20047;-80
2022/06/29 02:15:55;;;;;;;6.55;2.38;;;14.50;99.90;;;;;;6246812;23;20020;-80
2022/06/29 02:18:20;;;;;;;6.03;2.30;;;14.50;99.90;;;;;;6219585;23;20317;-80
2022/06/29 02:20:46;;;;;;;7.00;2.47;;;14.50;99.90;;;;;;6246465;23;20020;-81
2022/06/29 02:23:12;;;;;;;5.97;2.50;;;14.60;99.90;;;;;;6219569;23;20016;-81
2022/06/29 02:25:38;;;;;;;5.32;2.45;;;14.60;99.90;;;;;;6246367;23;20016;-85
2022/06/29 02:28:04;;;;;;;6.53;2.22;;;14.70;99.90;;;;;;6246467;23;20043;-81
2022/06/29 02:35:59;;;;;;;9.02;2.40;;;14.80;99.90;;;;;;6246454;23;20395;-81
2022/06/29 02:38:24;;;;;;;5.65;2.42;;;14.90;99.90;;;;;;6246207;23;20016;-81
2022/06/29 02:40:50;;;;;;;4.97;2.70;;;15.00;99.90;;;;;;6219595;23;20024;-81
2022/06/29 02:43:16;;;;;;;5.45;2.33;;;15.00;99.90;;;;;;6246279;23;20059;-81
2022/06/29 02:45:41;;;;;;;5.35;2.53;;;15.10;99.90;;;;;;6246361;23;20020;-81
2022/06/29 02:48:08;;;;;;;5.63;2.50;;;15.10;99.90;;;;;;6219476;23;20026;-81
2022/06/29 02:50:34;;;;;;;5.28;2.42;;;15.10;99.90;;;;;;6246140;23;20020;-80
2022/06/29 02:52:59;;;;;;;5.22;2.53;;;15.00;99.90;;;;;;6246218;23;20038;-81
2022/06/29 02:55:25;;;;;;;10.63;2.58;;;15.10;99.90;;;;;;6245933;23;20020;-80
2022/06/29 02:57:51;;;;;;;5.35;2.42;;;15.10;99.90;;;;;;6246242;23;20020;-81
2022/06/29 03:00:17;;;;;;;5.22;2.60;;;15.10;99.90;;;;;;6246026;23;20047;-80
2022/06/29 03:02:43;;;;;;;4.05;2.60;;;15.00;99.90;;;;;;6246032;23;20063;-81
2022/06/29 03:05:09;;;;;;;9.32;2.90;;;15.00;99.90;;;;;;6246099;23;20012;-81
2022/06/29 03:07:34;;;;;;;5.82;3.10;;;15.10;99.90;;;;;;6194250;23;20090;-81
2022/06/29 03:10:00;;;;;;;4.93;2.80;;;15.00;99.90;;;;;;6246137;23;20090;-81
2022/06/29 03:12:26;;;;;;;4.85;2.50;;;15.00;99.90;;;;;;6245994;23;20012;-81
2022/06/29 03:14:51;;;;;;;5.80;2.90;;;15.00;99.90;;;;;;6246060;23;20060;-82
2022/06/29 03:17:17;;;;;;;4.68;2.70;;;14.90;99.90;;;;;;6219004;23;20150;-81
2022/06/29 03:19:43;;;;;;;3.75;2.70;;;14.90;99.90;;;;;;6245853;23;20488;-81
2022/06/29 03:22:09;;;;;;;4.00;3.13;;;14.90;99.90;;;;;;6246182;23;20016;-80
2022/06/29 03:24:34;;;;;;;4.55;3.03;;;14.80;99.90;;;;;;6246048;23;20058;-80
2022/06/29 03:27:00;;;;;;;6.25;3.72;;;14.80;99.90;;;;;;6246047;23;20020;-80
2022/06/29 03:29:25;;;;;;;5.05;2.83;;;14.80;99.90;;;;;;6246208;23;20012;-80
2022/06/29 03:31:51;;;;;;;10.60;3.85;;;14.80;99.90;;;;;;6246055;23;20367;-83
2022/06/29 03:34:17;;;;;;;8.40;3.97;;;14.80;99.90;;;;;;6245928;23;20012;-81
2022/06/29 03:36:43;;;;;;;8.52;3.45;;;14.80;99.90;;;;;;6246231;23;20039;-81
2022/06/29 03:39:09;;;;;;;9.23;3.45;;;14.80;99.90;;;;;;6219289;23;20051;-81
2022/06/29 03:41:34;;;;;;;8.38;3.88;;;14.80;99.90;;;;;;6219406;23;20017;-81
2022/06/29 03:44:00;;;;;;;7.05;2.75;;;14.90;99.90;;;;;;6245953;23;20023;-80
2022/06/29 03:46:26;;;;;;;6.88;3.13;;;14.90;99.90;;;;;;6218513;23;20082;-80
2022/06/29 03:48:51;;;;;;;10.80;3.83;;;14.80;99.90;;;;;;6246198;23;20058;-81
2022/06/29 03:51:17;;;;;;;10.77;3.67;;;14.90;99.90;;;;;;6245880;23;20012;-81
2022/06/29 03:53:43;;;;;;;9.35;3.85;;;14.90;99.90;;;;;;6245963;23;20075;-81
2022/06/29 03:56:09;;;;;;;9.60;3.50;;;14.80;99.90;;;;;;6245936;23;20054;-80
2022/06/29 03:58:35;;;;;;;11.88;3.67;;;14.80;99.90;;;;;;6246020;23;20015;-80
2022/06/29 04:01:01;;;;;;;8.88;3.67;;;14.80;99.90;;;;;;6219108;23;20024;-81
2022/06/29 04:03:26;;;;;;;6.82;3.55;;;14.90;99.90;;;;;;6219112;23;20016;-81
2022/06/29 04:05:52;;;;;;;8.02;3.67;;;14.90;99.90;;;;;;6246320;23;20023;-81
2022/06/29 04:08:18;;;;;;;6.55;3.50;;;14.80;99.90;;;;;;6247743;23;20019;-80
2022/06/29 04:10:43;;;;;;;8.70;3.60;;;14.80;99.90;;;;;;6247783;23;20048;-81
2022/06/29 04:13:09;;;;;;;7.45;3.30;;;14.80;99.90;;;;;;6247687;23;20020;-81
2022/06/29 04:15:35;;;;;;;8.23;3.90;;;14.80;99.90;;;;;;6247658;23;20016;-81
2022/06/29 04:18:01;;;;;;;6.53;3.80;;;14.70;99.90;;;;;;6247649;23;20020;-81
2022/06/29 04:23:11;;;;;;;7.32;4.30;;;14.80;99.90;;;;;;6220791;23;20154;-81
2022/06/29 04:25:37;;;;;;;6.07;3.13;;;14.80;99.90;;;;;;6247703;23;20416;-81
2022/06/29 04:28:03;;;;;;;6.32;3.47;;;14.80;99.90;;;;;;6247714;23;20016;-81
2022/06/29 04:30:29;;;;;;;8.75;4.00;;;14.90;99.90;;;;;;6247140;23;20020;-81
2022/06/29 04:32:55;;;;;;;6.03;3.45;;;14.90;99.90;;;;;;6247410;23;20012;-82
2022/06/29 04:35:21;;;;;;;10.45;3.90;;;14.90;99.90;;;;;;6247335;23;20020;-80
2022/06/29 04:37:47;;;;;;;7.13;4.15;;;15.00;99.90;;;;;;6247581;23;20023;-80
2022/06/29 04:40:13;;;;;;;10.35;4.18;;;15.00;99.90;;;;;;6220654;23;20432;-81
2022/06/29 04:42:38;;;;;;;8.25;3.88;;;15.00;99.90;;;;;;6247484;23;20024;-81
2022/06/29 04:45:04;;;;;;;6.35;3.92;;;15.10;99.90;;;;;;6220724;23;20022;-81
2022/06/29 04:47:30;;;;;;;6.32;3.83;;;15.10;99.90;;;;;;6220826;23;20340;-81
2022/06/29 04:49:56;;;;;;;6.97;3.88;;;15.20;99.90;;;;;;6220524;23;20016;-81
2022/06/29 04:52:24;;;;;;;9.55;4.22;;;15.20;99.90;;;;;;6247409;23;20027;-80
2022/06/29 04:54:50;;;;;;;4.95;3.70;;;15.20;99.90;;;;;;6247356;23;20020;-81
2022/06/29 04:57:16;;;;;;;6.60;3.88;;;15.30;99.90;;;;;;6247409;23;20016;-81
2022/06/29 04:59:42;;;;;;;5.35;3.58;;;15.40;99.90;;;;;;6247115;23;20120;-81
2022/06/29 05:02:07;;;;;;;6.50;3.90;;;15.50;99.90;;;;;;6247228;23;20019;-81
2022/06/29 05:04:33;;;;;;;5.05;3.75;;;15.50;99.90;;;;;;6215204;23;20463;-81
2022/06/29 05:06:59;;;;;;;5.68;3.70;;;15.60;99.90;;;;;;6216659;23;20025;-81
2022/06/29 05:09:24;;;;;;;5.43;3.72;;;15.60;99.90;;;;;;6216884;23;20314;-81
2022/06/29 05:11:50;;;;;;;6.00;3.50;;;15.70;99.90;;;;;;6216902;23;20107;-81
2022/06/29 05:14:16;;;;;;;8.38;3.63;;;15.80;99.90;;;;;;6215158;23;20020;-80
2022/06/29 05:16:41;;;;;;;5.38;3.60;;;15.90;99.90;;;;;;6216958;23;20066;-81
2022/06/29 05:19:07;;;;;;;6.57;3.83;;;15.90;99.90;;;;;;6214596;23;20329;-81
2022/06/29 05:21:33;;;;;;;6.45;3.63;;;16.00;99.90;;;;;;6216512;23;20090;-82
2022/06/29 05:23:58;;;;;;;6.10;3.88;;;16.00;99.90;;;;;;6216709;23;20302;-81
2022/06/29 05:26:24;;;;;;;6.07;3.70;;;16.20;99.90;;;;;;6214897;23;20336;-81
2022/06/29 05:28:51;;;;;;;6.57;4.05;;;16.20;99.90;;;;;;6216703;23;20074;-82
2022/06/29 05:31:20;;;;;;;8.70;3.55;;;16.40;99.90;;;;;;6216795;23;20142;-82
2022/06/29 05:33:46;;;;;;;10.75;4.32;;;16.40;99.90;;;;;;6190145;23;20059;-80
2022/06/29 05:36:12;;;;;;;6.35;3.40;;;16.50;99.90;;;;;;6216490;23;20064;-82
2022/06/29 05:38:38;;;;;;;5.88;3.45;;;16.60;99.90;;;;;;6216394;23;20385;-81
2022/06/29 05:41:04;;;;;;;3.88;3.20;;;16.70;99.90;;;;;;6216114;23;20080;-81
2022/06/29 05:43:30;;;;;;;5.10;3.47;;;16.80;99.90;;;;;;6216545;23;20044;-82
2022/06/29 05:45:57;;;;;;;7.70;3.38;;;16.90;99.90;;;;;;6214932;23;20020;-82
2022/06/29 05:48:23;;;;;;;4.63;3.25;;;16.90;99.90;;;;;;6216525;23;20013;-82
2022/06/29 05:50:49;;;;;;;4.28;3.35;;;17.00;99.90;;;;;;6214909;23;20017;-82
2022/06/29 05:53:14;;;;;;;4.93;3.08;;;17.20;99.90;;;;;;6216278;23;20039;-82
2022/06/29 05:55:40;;;;;;;4.00;3.33;;;17.30;99.90;;;;;;6216416;23;20017;-81
2022/06/29 05:58:06;;;;;;;5.25;3.30;;;17.40;99.90;;;;;;6216643;23;20017;-81
2022/06/29 06:00:32;;;;;;;7.07;3.20;;;17.50;99.90;;;;;;6216522;23;20466;-82
2022/06/29 06:02:58;;;;;;;11.75;3.72;;;17.60;99.90;;;;;;6214805;23;20071;-82
2022/06/29 06:05:24;;;;;;;3.88;3.28;;;17.70;99.90;;;;;;6214617;23;20448;-81
2022/06/29 06:07:49;;;;;;;7.03;3.40;;;17.70;99.90;;;;;;6216289;23;20460;-82
2022/06/29 06:10:15;;;;;;;4.70;3.33;;;17.90;99.90;;;;;;6216315;23;20458;-81
2022/06/29 06:12:41;;;;;;;3.60;3.28;;;18.00;99.90;;;;;;6216179;23;20352;-81
2022/06/29 06:15:07;;;;;;;6.88;3.13;;;18.00;99.90;;;;;;6216264;23;20035;-83
2022/06/29 06:17:33;;;;;;;4.07;3.15;;;18.10;99.90;;;;;;6216040;23;20491;-82
2022/06/29 06:19:59;;;;;;;5.40;3.10;;;18.30;99.90;;;;;;6215647;23;20445;-82
2022/06/29 06:22:25;;;;;;;5.95;3.05;;;18.40;99.90;;;;;;6215847;23;20028;-84
2022/06/29 06:24:50;;;;;;;3.90;2.55;;;18.50;99.90;;;;;;6216038;23;20107;-83
2022/06/29 06:27:17;;;;;;;6.40;3.08;;;18.60;99.90;;;;;;6215842;23;20052;-83
2022/06/29 06:29:45;;;;;;;5.90;2.78;;;18.80;99.90;;;;;;6215662;23;20068;-82
2022/06/29 06:32:11;;;;;;;4.72;3.00;;;18.90;99.90;;;;;;6216186;23;20083;-84
2022/06/29 06:34:37;;;;;;;5.93;2.92;;;19.10;99.90;;;;;;6216063;23;20017;-82
2022/06/29 06:37:03;;;;;;;5.60;2.80;;;19.20;99.90;;;;;;6214372;23;20048;-82
2022/06/29 06:39:29;;;;;;;4.53;2.70;;;19.30;99.90;;;;;;6215924;23;20016;-82
2022/06/29 06:41:54;;;;;;;3.05;2.13;;;19.40;99.90;;;;;;6216044;23;20016;-82
2022/06/29 06:44:20;;;;;;;4.25;2.60;;;19.50;99.90;;;;;;6215951;23;20027;-82
2022/06/29 06:46:48;;;;;;;5.13;2.70;;;19.60;99.90;;;;;;6215985;23;20012;-83
2022/06/29 06:49:23;;;;;;;4.30;2.40;;;19.90;99.90;;;;;;6215895;23;20087;-83
2022/06/29 06:51:52;;;;;;;6.78;2.88;;;20.30;99.90;;;;;;6215832;23;20028;-82
2022/06/29 06:54:19;;;;;;;2.83;2.13;;;20.90;99.90;;;;;;6215879;23;20028;-82
2022/06/29 06:56:44;;;;;;;4.43;2.17;;;21.30;99.90;;;;;;6214428;23;20017;-81
2022/06/29 06:59:10;;;;;;;3.95;2.28;;;21.80;96.20;;;;;;6215618;23;20317;-82
2022/06/29 07:01:36;;;;;;;5.78;2.20;;;22.20;92.70;;;;;;6215868;23;20445;-83
2022/06/29 07:04:01;;;;;;;3.83;2.20;;;22.50;90.00;;;;;;6217756;23;20075;-82
2022/06/29 07:06:27;;;;;;;4.53;2.22;;;22.80;85.50;;;;;;6219078;23;20023;-83
2022/06/29 07:08:54;;;;;;;4.85;1.92;;;23.20;81.80;;;;;;6245995;23;20066;-83
2022/06/29 07:11:20;;;;;;;3.63;1.80;;;23.60;83.60;;;;;;6219497;23;20436;-84
2022/06/29 07:13:46;;;;;;;8.00;2.22;;;24.00;76.10;;;;;;6246092;23;20027;-83
2022/06/29 07:16:13;;;;;;;4.75;2.00;;;24.50;72.30;;;;;;6246066;23;20016;-83
2022/06/29 07:18:38;;;;;;;3.20;1.70;;;24.90;67.80;;;;;;6246002;23;20008;-83
2022/06/29 07:21:04;;;;;;;4.00;1.55;;;25.40;67.20;;;;;;6218733;23;20013;-83
2022/06/29 07:23:30;;;;;;;4.32;1.80;;;25.90;64.40;;;;;;6219182;23;20024;-83
2022/06/29 07:25:56;;;;;;;3.90;1.75;;;26.20;62.50;;;;;;6246105;23;20047;-83
2022/06/29 07:28:22;;;;;;;2.40;1.52;;;26.00;60.40;;;;;;6246384;23;20041;-82
2022/06/29 07:30:48;;;;;;;6.05;1.55;;;25.70;61.70;;;;;;6245997;23;20428;-83
2022/06/29 07:33:14;;;;;;;2.13;1.50;;;25.90;60.50;;;;;;6245982;23;20012;-83
2022/06/29 07:35:39;;;;;;;6.25;1.60;;;26.30;58.80;;;;;;6245928;23;20523;-84
2022/06/29 07:38:06;;;;;;;3.38;1.35;;;27.00;57.40;;;;;;6219060;23;20027;-83
2022/06/29 07:40:33;;;;;;;3.42;1.30;;;27.40;55.80;;;;;;6246260;23;20012;-83
2022/06/29 07:42:59;;;;;;;5.20;1.50;;;27.70;54.80;;;;;;6248055;23;20012;-83
2022/06/29 07:45:24;;;;;;;2.42;1.45;;;27.80;54.10;;;;;;6221297;23;20070;-83
2022/06/29 07:47:56;;;;;;;2.63;1.40;;;28.00;53.40;;;;;;6220700;23;20347;-83
2022/06/29 07:50:21;;;;;;;2.80;1.40;;;28.60;51.50;;;;;;6220799;23;20019;-83
2022/06/29 07:52:47;;;;;;;4.95;1.67;;;28.90;50.40;;;;;;6247832;23;20078;-83
2022/06/29 07:55:13;;;;;;;4.68;1.40;;;29.20;51.20;;;;;;6247860;23;20099;-83
2022/06/29 07:57:40;;;;;;;5.55;1.70;;;29.60;50.10;;;;;;6220687;23;20019;-83
2022/06/29 08:00:12;;;;;;;5.63;1.58;;;29.90;48.00;;;;;;6248249;23;20020;-83
2022/06/29 08:02:41;;;;;;;4.28;1.50;;;29.80;47.10;;;;;;6247363;23;20486;-83
2022/06/29 08:05:07;;;;;;;3.88;1.60;;;29.70;47.80;;;;;;6247776;23;20012;-83
2022/06/29 08:07:32;;;;;;;5.53;2.25;;;29.80;48.50;;;;;;6247668;23;20023;-84
2022/06/29 08:09:58;;;;;;;3.30;2.20;;;30.00;47.60;;;;;;6247877;23;20023;-83
2022/06/29 08:12:24;;;;;;;3.10;2.30;;;30.10;46.90;;;;;;6220991;23;20444;-83
2022/06/29 08:14:50;;;;;;;4.00;2.20;;;30.40;45.90;;;;;;6220876;23;20016;-84
2022/06/29 08:17:16;;;;;;;5.45;2.15;;;31.00;45.90;;;;;;6247680;23;20497;-83
2022/06/29 08:19:44;;;;;;;6.35;2.58;;;31.50;44.80;;;;;;6220546;23;20474;-83
2022/06/29 08:22:10;;;;;;;7.00;3.38;;;31.90;44.00;;;;;;6247476;23;20020;-84
2022/06/29 08:24:36;;;;;;;6.60;3.03;;;31.90;43.50;;;;;;6195369;23;20527;-84
2022/06/29 08:27:01;;;;;;;4.97;2.58;;;32.10;43.00;;;;;;6247593;23;20020;-84
2022/06/29 08:29:27;;;;;;;4.15;2.47;;;32.10;42.90;;;;;;6195002;23;20055;-83
2022/06/29 08:31:53;;;;;;;3.78;2.03;;;32.20;43.10;;;;;;6247240;23;20031;-83
2022/06/29 08:34:40;;;;;;;4.70;2.03;;;32.60;42.60;;;;;;6247307;23;20054;-83
2022/06/29 08:37:05;;;;;;;6.35;1.85;;;32.20;42.30;;;;;;6198926;23;20027;-83
2022/06/29 08:39:31;;;;;;;2.83;1.70;;;31.40;44.00;;;;;;6247567;23;20328;-83
2022/06/29 08:42:01;;;;;;;4.72;1.90;;;30.60;44.60;;;;;;6220388;23;20020;-83
2022/06/29 08:44:29;;;;;;;4.72;1.75;;;29.80;45.30;;;;;;6194442;23;20420;-82
2022/06/29 08:46:54;;;;;;;2.30;1.63;;;29.00;46.80;;;;;;6219815;23;20115;-83
2022/06/29 08:49:21;;;;;;;2.17;1.58;;;28.50;48.70;;;;;;6247129;23;20467;-83
2022/06/29 08:51:48;;;;;;;3.80;1.80;;;28.10;48.20;;;;;;6219344;23;20510;-83
2022/06/29 08:54:15;;;;;;;3.30;1.63;;;27.70;49.60;;;;;;6219641;23;20447;-84
2022/06/29 08:56:41;;;;;;;3.70;1.50;;;27.40;50.70;;;;;;6247052;23;20447;-84
2022/06/29 08:59:09;;;;;;;3.72;1.80;;;27.40;51.20;;;;;;6247161;23;20318;-83
2022/06/29 09:01:36;;;;;;;3.55;1.60;;;27.70;50.40;;;;;;6246826;23;20019;-83
2022/06/29 09:04:02;;;;;;;2.97;1.83;;;28.20;50.00;;;;;;6246567;23;20507;-85
2022/06/29 09:06:28;;;;;;;2.13;1.63;;;28.50;49.10;;;;;;6246499;23;20058;-83
2022/06/29 09:08:55;;;;;;;5.65;1.80;;;29.20;47.40;;;;;;6220476;23;20024;-83
2022/06/29 09:11:23;;;;;;;4.88;1.90;;;30.20;47.00;;;;;;6247097;23;20066;-83
2022/06/29 09:14:11;;;;;;;3.67;1.50;;;31.10;44.50;;;;;;6247159;23;20354;-83
2022/06/29 09:16:59;;;;;;;2.53;1.50;;;31.50;44.70;;;;;;6220177;23;20012;-83
2022/06/29 09:19:41;;;;;;;3.38;1.50;;;31.70;45.70;;;;;;6246098;23;20511;-83
2022/06/29 09:22:07;;;;;;;2.53;1.33;;;32.10;45.00;;;;;;6219665;23;20091;-83
2022/06/29 09:24:33;;;;;;;4.32;1.42;;;32.20;44.20;;;;;;6246801;23;20056;-83
2022/06/29 09:27:02;;;;;;;2.75;1.70;;;32.60;43.50;;;;;;6246880;23;20452;-83
2022/06/29 09:29:41;;;;;;;6.93;1.50;;;32.90;41.50;;;;;;6246835;23;20012;-83
2022/06/29 09:32:18;;;;;;;1.73;1.33;;;32.50;41.40;;;;;;6195096;23;20024;-83
2022/06/29 09:34:50;;;;;;;2.35;1.63;;;31.60;42.60;;;;;;6246703;23;20103;-83
2022/06/29 09:37:17;;;;;;;1.88;1.40;;;30.90;43.70;;;;;;6246862;23;20016;-83
2022/06/29 09:39:51;;;;;;;6.30;1.88;;;31.50;44.10;;;;;;6219319;23;20023;-83
2022/06/29 09:42:25;;;;;;;3.78;1.77;;;32.50;42.20;;;;;;6246762;23;20027;-83
2022/06/29 09:44:52;;;;;;;2.33;1.40;;;33.50;40.80;;;;;;6246469;23;20043;-83
2022/06/29 09:47:19;;;;;;;2.03;1.45;;;34.10;41.50;;;;;;6246782;23;20024;-83
2022/06/29 09:49:46;;;;;;;2.90;1.38;;;34.70;40.70;;;;;;6246745;23;20309;-83
2022/06/29 09:52:12;;;;;;;3.38;1.30;;;34.90;39.40;;;;;;6247009;23;20184;-83
2022/06/29 09:54:39;;;;;;;3.05;1.23;;;35.20;38.30;;;;;;6246601;23;20054;-84
2022/06/29 09:57:06;;;;;;;2.80;1.50;;;35.30;37.70;;;;;;6246724;23;20020;-83
2022/06/29 10:02:40;;;;;;;3.50;1.42;;;35.80;38.10;;;;;;6246593;23;20030;-84
2022/06/29 10:05:09;;;;;;;4.07;1.60;;;36.10;37.70;;;;;;6246622;23;20340;-83
2022/06/29 10:07:37;;;;;;;3.03;1.63;;;36.40;37.90;;;;;;6246545;23;20028;-83
2022/06/29 10:10:06;;;;;;;3.15;1.55;;;37.00;38.50;;;;;;6246974;23;20031;-83
2022/06/29 10:15:50;;;;;;;3.45;1.50;;;38.10;36.20;;;;;;6246523;23;20563;-83
2022/06/29 10:18:16;;;;;;;2.42;1.30;;;38.50;37.20;;;;;;6099331;23;20022;-83
2022/06/29 10:20:43;;;;;;;2.90;1.83;;;38.70;36.50;;;;;;6123933;23;20327;-83
2022/06/29 10:23:44;;;;;;;3.53;1.50;;;38.90;36.10;;;;;;6099527;23;20512;-83
2022/06/29 10:26:30;;;;;;;3.05;1.73;;;38.90;35.40;;;;;;6099241;23;20370;-83
2022/06/29 10:29:19;;;;;;;3.33;1.67;;;38.80;34.80;;;;;;6099383;23;20055;-83
2022/06/29 10:31:51;;;;;;;2.55;1.67;;;38.40;35.10;;;;;;6037093;23;20063;-84
2022/06/29 10:34:31;;;;;;;5.20;2.00;;;38.30;35.80;;;;;;6036467;23;20042;-85
2022/06/29 10:37:05;;;;;;;3.85;1.92;;;38.50;34.60;;;;;;6037021;23;20542;-83
2022/06/29 10:39:45;;;;;;;3.63;2.00;;;38.10;34.90;;;;;;6013389;23;20413;-84
2022/06/29 10:45:16;;;;;;;4.25;1.80;;;37.50;34.90;;;;;;6037138;23;20555;-84
2022/06/29 10:47:45;;;;;;;3.50;2.00;;;37.70;34.60;;;;;;6037031;23;20107;-84
2022/06/29 10:50:34;;;;;;;2.42;2.08;;;37.80;35.50;;;;;;6037075;23;20063;-84
2022/06/29 10:53:05;;;;;;;2.53;1.60;;;38.10;34.80;;;;;;6036834;23;20027;-83
2022/06/29 10:55:33;;;;;;;3.88;2.03;;;38.60;35.40;;;;;;6087284;23;20080;-82
2022/06/29 10:58:00;;;;;;;4.70;1.95;;;38.70;34.30;;;;;;6124011;23;20018;-82
2022/06/29 11:00:28;;;;;;;3.13;1.83;;;37.70;35.00;;;;;;6099116;23;20053;-86
2022/06/29 11:02:55;;;;;;;3.03;1.90;;;36.10;36.90;;;;;;6099286;23;20018;-83
2022/06/29 11:05:21;;;;;;;8.48;2.05;;;34.40;38.70;;;;;;6123584;23;20021;-83
2022/06/29 11:13:26;;;;;;;3.28;2.03;;;31.10;44.70;;;;;;6246073;23;20026;-84
2022/06/29 11:15:54;;;;;;;2.10;1.90;;;30.50;45.60;;;;;;6246019;23;20035;-83
2022/06/29 11:18:28;;;;;;;2.90;2.25;;;30.10;46.60;;;;;;6218745;23;20024;-83
2022/06/29 11:21:02;;;;;;;2.90;1.95;;;29.90;47.10;;;;;;6219251;23;20103;-83
2022/06/29 11:23:29;;;;;;;5.53;2.10;;;29.70;47.70;;;;;;6245737;23;20448;-83
2022/06/29 11:25:55;;;;;;;3.22;2.25;;;29.70;47.50;;;;;;6219710;23;20008;-82
2022/06/29 11:28:25;;;;;;;3.45;1.80;;;29.70;46.80;;;;;;6246124;23;20012;-83
2022/06/29 11:31:11;;;;;;;3.55;2.03;;;29.90;46.20;;;;;;6219336;23;20024;-84
2022/06/29 11:33:41;;;;;;;7.18;2.20;;;29.80;46.50;;;;;;6193672;23;20016;-84
2022/06/29 11:36:13;;;;;;;3.30;2.13;;;29.70;48.20;;;;;;6245992;23;20020;-83
2022/06/29 11:38:41;;;;;;;3.20;2.13;;;29.60;47.00;;;;;;6219031;23;20012;-83
2022/06/29 11:41:11;;;;;;;2.35;2.15;;;29.70;46.30;;;;;;6245928;23;20023;-83
2022/06/29 11:43:37;;;;;;;4.57;2.25;;;30.10;46.30;;;;;;6245908;23;20023;-83
2022/06/29 11:46:03;;;;;;;3.88;2.22;;;30.60;45.00;;;;;;6245810;23;20012;-82
2022/06/29 11:48:30;;;;;;;3.75;2.40;;;31.40;45.00;;;;;;6245930;23;20375;-81
2022/06/29 11:51:01;;;;;;;3.85;2.17;;;32.60;42.80;;;;;;6219272;23;20085;-84
2022/06/29 11:53:44;;;;;;;2.58;1.80;;;33.70;40.40;;;;;;6245982;23;20340;-83
2022/06/29 11:56:19;;;;;;;3.13;2.42;;;34.40;41.30;;;;;;6245858;23;20012;-83
2022/06/29 11:58:53;;;;;;;2.47;2.28;;;34.20;40.30;;;;;;6246035;23;20023;-84
2022/06/29 12:01:22;;;;;;;4.93;2.92;;;34.20;39.30;;;;;;6246225;23;20336;-83
2022/06/29 12:03:52;;;;;;;3.90;2.60;;;33.50;38.90;;;;;;6245860;23;20059;-84
2022/06/29 12:06:19;;;;;;;2.33;2.08;;;32.60;40.10;;;;;;6218986;23;20059;-83
2022/06/29 12:08:46;;;;;;;3.17;2.40;;;32.10;41.30;;;;;;6219157;23;20009;-83
2022/06/29 12:11:12;;;;;;;8.10;2.50;;;31.70;41.80;;;;;;6218996;23;20016;-83
2022/06/29 12:13:38;;;;;;;4.28;2.30;;;31.20;43.60;;;;;;6245824;23;20019;-83
2022/06/29 12:16:04;;;;;;;3.45;3.00;;;31.20;43.80;;;;;;6219055;23;20040;-83
2022/06/29 12:18:30;;;;;;;4.78;2.63;;;31.90;43.70;;;;;;6218853;23;20420;-84
2022/06/29 12:20:56;;;;;;;3.17;2.42;;;33.00;42.50;;;;;;6245700;23;20016;-84
2022/06/29 12:23:22;;;;;;;5.38;2.25;;;34.00;40.60;;;;;;6219072;23;20462;-84
2022/06/29 12:25:48;;;;;;;4.03;2.63;;;34.60;39.80;;;;;;6245710;23;20016;-83
2022/06/29 12:28:14;;;;;;;3.40;2.17;;;34.90;39.90;;;;;;6246586;23;20016;-83
2022/06/29 12:30:39;;;;;;;3.40;2.70;;;35.20;40.10;;;;;;6220835;23;20020;-83
2022/06/29 12:33:09;;;;;;;5.68;2.70;;;35.30;39.70;;;;;;6247479;23;20016;-83
2022/06/29 12:35:35;;;;;;;7.72;2.65;;;34.90;39.30;;;;;;6247464;23;20012;-83
2022/06/29 12:38:01;;;;;;;5.65;3.08;;;34.50;40.40;;;;;;6247495;23;20062;-83
2022/06/29 12:40:29;;;;;;;3.33;2.42;;;34.10;40.30;;;;;;6220034;23;20330;-83
2022/06/29 12:42:54;;;;;;;3.42;2.33;;;34.00;41.20;;;;;;6247496;23;20016;-85
2022/06/29 12:45:21;;;;;;;3.50;2.33;;;34.00;40.90;;;;;;6247340;23;20497;-83
2022/06/29 12:47:47;;;;;;;5.07;2.40;;;34.20;40.80;;;;;;6247324;23;20019;-83
2022/06/29 12:50:13;;;;;;;3.97;2.58;;;34.70;40.10;;;;;;6247550;23;20035;-83
2022/06/29 12:52:40;;;;;;;5.90;2.67;;;35.20;39.20;;;;;;6247780;23;20424;-84
2022/06/29 12:55:09;;;;;;;7.43;2.40;;;35.60;39.30;;;;;;6246765;23;20449;-84
2022/06/29 12:57:35;;;;;;;4.32;2.55;;;35.90;37.60;;;;;;6195144;23;20051;-83
2022/06/29 13:00:02;;;;;;;3.20;2.55;;;36.10;37.80;;;;;;6247306;23;20016;-84
2022/06/29 13:02:29;;;;;;;3.17;2.60;;;36.30;37.00;;;;;;6220469;23;20027;-84
2022/06/29 13:04:55;;;;;;;4.95;2.75;;;36.40;36.60;;;;;;6220007;23;20090;-84
2022/06/29 13:07:26;;;;;;;4.50;2.47;;;36.40;37.00;;;;;;6247182;23;20063;-83
2022/06/29 13:09:55;;;;;;;6.10;2.47;;;36.10;37.00;;;;;;6219572;23;20049;-84